Time;durP1;ratioP1;P1;durP2;ratioP2;P2;SDS_P1;SDS_P2;PMS_P1;PMS_P2;Temp;Humidity;BMP_temperature;BMP_pressure;BME280_temperature;BME280_humidity;BME280_pressure;Samples;Min_cycle;Max_cycle;Signal;HPM_P1;HPM_P2
2022/09/16 00:01:16;;;;;;;3.90;3.40;;;16.90;1.00;;;;;;5048013;28;20181;-74
2022/09/16 00:03:41;;;;;;;7.87;3.17;;;16.90;1.00;;;;;;5039975;28;20588;-74
2022/09/16 00:06:17;;;;;;;5.93;3.50;;;16.80;1.00;;;;;;5044292;28;20451;-75
2022/09/16 00:08:44;;;;;;;4.80;3.33;;;16.80;1.00;;;;;;5049064;28;20207;-75
2022/09/16 00:11:11;;;;;;;4.27;3.40;;;16.80;1.00;;;;;;5048230;28;20508;-74
2022/09/16 00:13:36;;;;;;;4.70;3.27;;;16.80;1.00;;;;;;5040095;28;20525;-75
2022/09/16 00:16:07;;;;;;;7.87;3.40;;;16.70;1.00;;;;;;5047688;28;21060;-74
2022/09/16 00:18:32;;;;;;;5.73;2.90;;;16.70;1.00;;;;;;5046754;28;20193;-74
2022/09/16 00:20:58;;;;;;;7.30;3.40;;;16.60;1.00;;;;;;5046610;28;20423;-74
2022/09/16 00:23:23;;;;;;;5.73;3.23;;;16.50;1.00;;;;;;5047706;28;20498;-74
2022/09/16 00:25:51;;;;;;;7.20;3.20;;;16.50;1.00;;;;;;5068289;28;20207;-74
2022/09/16 00:28:17;;;;;;;4.80;3.33;;;16.40;1.00;;;;;;5054761;28;20207;-74
2022/09/16 00:30:43;;;;;;;11.97;3.73;;;16.40;1.00;;;;;;5047933;28;20758;-74
2022/09/16 00:33:09;;;;;;;8.03;3.03;;;16.50;1.00;;;;;;5049288;28;20418;-74
2022/09/16 00:35:34;;;;;;;13.60;4.03;;;16.50;1.00;;;;;;5048172;28;20239;-74
2022/09/16 00:38:00;;;;;;;7.37;3.90;;;16.50;1.00;;;;;;5047984;28;20506;-74
2022/09/16 00:40:25;;;;;;;10.17;3.73;;;16.40;1.00;;;;;;5048029;28;20200;-74
2022/09/16 00:42:51;;;;;;;8.00;3.80;;;16.30;1.00;;;;;;5047788;28;20257;-74
2022/09/16 00:45:23;;;;;;;6.40;3.40;;;16.20;1.00;;;;;;5045421;28;20184;-74
2022/09/16 00:47:58;;;;;;;5.73;3.60;;;16.20;1.00;;;;;;5048813;28;20181;-74
2022/09/16 00:50:29;;;;;;;5.47;3.20;;;16.10;1.00;;;;;;5045628;28;20459;-74
2022/09/16 00:52:55;;;;;;;8.00;3.60;;;16.00;1.00;;;;;;5048764;28;20886;-75
2022/09/16 00:55:29;;;;;;;8.90;3.97;;;16.00;1.00;;;;;;5047551;28;20431;-74
2022/09/16 00:58:04;;;;;;;5.73;3.03;;;16.00;1.00;;;;;;5048412;28;20414;-74
2022/09/16 01:00:30;;;;;;;7.77;3.33;;;16.00;1.00;;;;;;5040259;28;20487;-74
2022/09/16 01:02:55;;;;;;;8.13;3.60;;;15.90;1.00;;;;;;5048431;28;20481;-74
2022/09/16 01:05:25;;;;;;;5.90;3.50;;;15.90;1.00;;;;;;5039761;28;20427;-74
2022/09/16 01:07:52;;;;;;;9.53;3.80;;;16.00;1.00;;;;;;5048981;28;20224;-74
2022/09/16 01:10:20;;;;;;;5.23;3.50;;;16.00;1.00;;;;;;5046057;28;20431;-74
2022/09/16 01:12:54;;;;;;;6.47;3.40;;;16.00;1.00;;;;;;5046712;28;20495;-74
2022/09/16 01:15:23;;;;;;;7.53;3.53;;;16.00;1.00;;;;;;5050486;28;20432;-74
2022/09/16 01:18:10;;;;;;;4.37;3.33;;;16.00;1.00;;;;;;5045342;28;20461;-74
2022/09/16 01:20:52;;;;;;;5.53;3.10;;;16.00;1.00;;;;;;5046710;28;20446;-74
2022/09/16 01:23:54;;;;;;;4.50;3.07;;;16.00;1.00;;;;;;5048580;28;20416;-74
2022/09/16 01:26:57;;;;;;;5.27;3.30;;;16.00;1.00;;;;;;5046316;28;20523;-75
2022/09/16 01:29:35;;;;;;;9.40;3.33;;;15.90;1.00;;;;;;5043527;28;20542;-74
2022/09/16 01:32:27;;;;;;;5.33;3.50;;;15.80;1.00;;;;;;5046829;28;20415;-74
2022/09/16 01:35:09;;;;;;;5.87;3.23;;;15.80;1.00;;;;;;5041567;28;20793;-74
2022/09/16 01:38:02;;;;;;;7.70;4.03;;;15.80;1.00;;;;;;5044373;28;20489;-75
2022/09/16 01:40:42;;;;;;;11.27;3.90;;;15.70;1.00;;;;;;5039873;28;20822;-74
2022/09/16 01:43:35;;;;;;;6.40;3.57;;;15.60;1.00;;;;;;5035595;28;20932;-75
2022/09/16 01:46:29;;;;;;;7.40;3.63;;;15.50;1.00;;;;;;5046787;28;20478;-75
2022/09/16 01:49:17;;;;;;;11.80;4.17;;;15.50;1.00;;;;;;5043423;28;20464;-74
2022/09/16 01:51:56;;;;;;;8.60;4.00;;;15.30;1.00;;;;;;5041904;28;20424;-74
2022/09/16 01:54:32;;;;;;;11.97;4.00;;;15.30;1.00;;;;;;5042426;28;20431;-75
2022/09/16 01:57:01;;;;;;;9.53;3.83;;;15.30;1.00;;;;;;5048194;28;21015;-74
2022/09/16 01:59:42;;;;;;;10.60;3.83;;;15.30;2.30;;;;;;5045564;28;20432;-75
2022/09/16 02:02:32;;;;;;;20.30;4.33;;;15.30;1.00;;;;;;5038712;28;20431;-74
2022/09/16 02:05:02;;;;;;;10.30;3.60;;;15.40;1.00;;;;;;5037598;28;20450;-74
2022/09/16 02:07:32;;;;;;;6.87;3.30;;;15.40;1.00;;;;;;5046314;28;20517;-74
2022/09/16 02:10:05;;;;;;;9.57;3.60;;;15.40;1.00;;;;;;5045512;28;20521;-74
2022/09/16 02:12:33;;;;;;;8.40;3.77;;;15.40;1.00;;;;;;5048091;28;20438;-74
2022/09/16 02:15:05;;;;;;;5.30;3.60;;;15.40;1.00;;;;;;5039021;28;20890;-74
2022/09/16 02:17:34;;;;;;;8.93;3.80;;;15.50;1.00;;;;;;5047285;28;20447;-75
2022/09/16 02:20:06;;;;;;;10.63;3.80;;;15.50;1.00;;;;;;5040115;28;20420;-75
2022/09/16 02:22:40;;;;;;;10.70;3.33;;;15.50;1.00;;;;;;5047772;28;20514;-75
2022/09/16 02:25:08;;;;;;;6.67;3.47;;;15.50;1.00;;;;;;5034736;28;20449;-74
2022/09/16 02:27:37;;;;;;;5.00;3.20;;;15.40;1.00;;;;;;5049610;28;20493;-74
2022/09/16 02:30:08;;;;;;;5.00;3.60;;;15.40;1.00;;;;;;5043959;28;20522;-74
2022/09/16 02:32:38;;;;;;;4.90;3.40;;;15.40;1.00;;;;;;5039273;28;20470;-74
2022/09/16 02:35:07;;;;;;;8.10;3.70;;;15.30;1.00;;;;;;5043051;28;20826;-74
2022/09/16 02:37:44;;;;;;;9.13;3.63;;;15.40;1.00;;;;;;5051325;28;20530;-74
2022/09/16 02:40:15;;;;;;;6.73;3.83;;;15.40;1.00;;;;;;5045028;28;20407;-74
2022/09/16 02:42:41;;;;;;;6.77;3.47;;;15.30;1.00;;;;;;5049630;28;20400;-74
2022/09/16 02:45:07;;;;;;;5.40;3.60;;;15.30;1.00;;;;;;5049452;28;20812;-74
2022/09/16 02:47:43;;;;;;;7.60;3.60;;;15.30;1.00;;;;;;5045217;28;20288;-74
2022/09/16 02:50:37;;;;;;;9.73;3.90;;;15.30;1.00;;;;;;5044039;28;20465;-75
2022/09/16 02:53:21;;;;;;;12.53;3.30;;;15.30;1.00;;;;;;5016448;28;20499;-74
2022/09/16 02:55:56;;;;;;;12.67;3.77;;;15.40;1.00;;;;;;5050017;28;20428;-75
2022/09/16 02:58:21;;;;;;;7.93;3.77;;;15.40;1.00;;;;;;5046249;28;20502;-75
2022/09/16 03:00:53;;;;;;;6.07;3.20;;;15.40;1.00;;;;;;5049246;28;20938;-75
2022/09/16 03:03:19;;;;;;;6.60;3.20;;;15.40;1.00;;;;;;5049578;28;20172;-75
2022/09/16 03:06:12;;;;;;;8.80;3.40;;;15.50;1.00;;;;;;5051069;28;20431;-74
2022/09/16 03:08:38;;;;;;;5.93;3.60;;;15.50;1.00;;;;;;5036890;28;20455;-74
2022/09/16 03:11:44;;;;;;;7.47;3.40;;;15.50;1.00;;;;;;5046139;28;20426;-74
2022/09/16 03:14:26;;;;;;;7.80;3.47;;;15.60;1.00;;;;;;5037268;28;20427;-74
2022/09/16 03:17:04;;;;;;;8.37;3.57;;;15.60;1.00;;;;;;5048453;28;20858;-75
2022/09/16 03:19:59;;;;;;;7.73;3.27;;;15.60;1.00;;;;;;5050845;28;20480;-75
2022/09/16 03:22:33;;;;;;;7.60;3.87;;;15.50;1.00;;;;;;5031522;28;20981;-75
2022/09/16 03:25:24;;;;;;;10.80;3.57;;;15.50;1.00;;;;;;5035266;28;20989;-75
2022/09/16 03:27:56;;;;;;;4.27;3.20;;;15.50;1.00;;;;;;5046959;28;20946;-75
2022/09/16 03:30:22;;;;;;;7.40;3.60;;;15.60;1.00;;;;;;5029737;28;20845;-74
2022/09/16 03:32:53;;;;;;;10.50;3.93;;;15.60;1.00;;;;;;5031103;28;20424;-74
2022/09/16 03:35:41;;;;;;;5.73;3.37;;;15.70;1.00;;;;;;5048073;28;20169;-75
2022/09/16 03:38:07;;;;;;;6.63;3.47;;;15.70;1.00;;;;;;5048671;28;20526;-75
2022/09/16 03:40:33;;;;;;;6.27;2.80;;;15.80;1.00;;;;;;5045224;28;20480;-75
2022/09/16 03:42:59;;;;;;;7.40;3.17;;;15.80;1.00;;;;;;5035024;28;20530;-74
2022/09/16 03:45:24;;;;;;;6.53;3.10;;;15.80;1.00;;;;;;5042974;28;20977;-74
2022/09/16 03:47:51;;;;;;;6.60;3.77;;;15.90;1.00;;;;;;5048126;28;20192;-74
2022/09/16 03:50:19;;;;;;;18.03;3.90;;;15.90;1.00;;;;;;5048717;28;20181;-75
2022/09/16 03:52:44;;;;;;;5.60;3.13;;;15.90;1.00;;;;;;5046537;28;20439;-74
2022/09/16 03:55:10;;;;;;;4.40;3.70;;;15.90;1.00;;;;;;5049021;28;20489;-74
2022/09/16 03:57:37;;;;;;;4.03;3.03;;;15.90;1.00;;;;;;5048422;28;20648;-74
2022/09/16 04:00:04;;;;;;;8.03;3.60;;;15.90;1.00;;;;;;5049508;28;20428;-74
2022/09/16 04:02:30;;;;;;;5.57;3.67;;;15.90;1.00;;;;;;5040815;28;20467;-74
2022/09/16 04:04:55;;;;;;;13.83;3.73;;;15.80;1.00;;;;;;5049195;28;20455;-74
2022/09/16 04:07:21;;;;;;;4.50;3.53;;;15.80;1.00;;;;;;5048710;28;20204;-74
2022/09/16 04:09:46;;;;;;;8.20;3.70;;;15.80;1.00;;;;;;5049304;28;20204;-74
2022/09/16 04:12:12;;;;;;;6.07;3.70;;;15.80;1.00;;;;;;5047716;28;20204;-75
2022/09/16 04:14:38;;;;;;;5.07;3.70;;;15.70;1.00;;;;;;5035661;28;20260;-74
2022/09/16 04:17:03;;;;;;;11.80;4.00;;;15.60;1.00;;;;;;5049314;28;20263;-74
2022/09/16 04:19:29;;;;;;;5.77;3.63;;;15.40;1.00;;;;;;5047366;28;20181;-75
2022/09/16 04:21:55;;;;;;;5.17;3.63;;;15.70;1.00;;;;;;5048497;28;20264;-74
2022/09/16 04:24:21;;;;;;;7.63;3.77;;;15.20;1.00;;;;;;5047163;28;21024;-75
2022/09/16 04:26:46;;;;;;;5.80;3.20;;;15.20;1.00;;;;;;5047984;28;20228;-75
2022/09/16 04:29:12;;;;;;;9.53;3.80;;;15.20;4.10;;;;;;5048489;28;20219;-74
2022/09/16 04:31:37;;;;;;;9.27;4.57;;;14.90;3.00;;;;;;5047775;28;20173;-74
2022/09/16 04:34:04;;;;;;;8.40;3.90;;;14.70;8.20;;;;;;5040981;28;20162;-75
2022/09/16 04:36:30;;;;;;;6.97;4.20;;;14.70;11.80;;;;;;5047760;28;20189;-75
2022/09/16 04:38:55;;;;;;;9.97;3.90;;;14.70;9.00;;;;;;5040771;28;20431;-74
2022/09/16 04:41:24;;;;;;;12.10;3.73;;;14.80;3.30;;;;;;5042106;28;20514;-74
2022/09/16 04:43:51;;;;;;;5.90;4.40;;;14.80;9.40;;;;;;5041429;28;20189;-75
2022/09/16 04:46:18;;;;;;;6.00;3.77;;;14.90;12.40;;;;;;5052699;28;20976;-75
2022/09/16 04:48:46;;;;;;;8.37;3.27;;;14.90;10.90;;;;;;5049119;28;20462;-75
2022/09/16 04:51:12;;;;;;;9.23;4.33;;;14.90;6.90;;;;;;5048751;28;20420;-75
2022/09/16 04:53:39;;;;;;;8.10;3.97;;;14.80;10.80;;;;;;5046567;28;20418;-74
2022/09/16 04:56:14;;;;;;;7.43;4.10;;;14.70;13.80;;;;;;5048411;28;20255;-75
2022/09/16 04:58:41;;;;;;;6.03;4.00;;;14.70;16.70;;;;;;5036987;28;20419;-75
2022/09/16 05:01:11;;;;;;;8.65;4.10;;;14.70;23.80;;;;;;5045992;28;20493;-78
2022/09/16 05:03:41;;;;;;;8.47;3.60;;;14.70;23.90;;;;;;5051456;28;20176;-80
2022/09/16 05:06:10;;;;;;;12.53;4.17;;;14.70;33.30;;;;;;5049632;28;20480;-80
2022/09/16 05:08:37;;;;;;;6.90;3.80;;;14.70;41.30;;;;;;5046613;28;20455;-81
2022/09/16 05:11:08;;;;;;;8.30;4.60;;;14.70;37.80;;;;;;5050260;28;21181;-81
2022/09/16 05:13:34;;;;;;;7.63;4.00;;;14.70;41.80;;;;;;5048468;28;20445;-79
2022/09/16 05:16:04;;;;;;;6.37;3.97;;;14.70;41.70;;;;;;5050934;28;20471;-77
2022/09/16 05:18:30;;;;;;;6.60;4.20;;;14.70;41.90;;;;;;5046040;28;20233;-79
2022/09/16 05:21:00;;;;;;;9.43;4.27;;;14.70;41.80;;;;;;5040113;28;20933;-79
2022/09/16 05:23:26;;;;;;;8.63;4.17;;;14.70;41.70;;;;;;5042743;28;20561;-78
2022/09/16 05:25:53;;;;;;;8.83;4.30;;;14.00;41.20;;;;;;5052814;28;20449;-81
2022/09/16 05:28:19;;;;;;;10.87;4.63;;;14.60;41.80;;;;;;5049720;28;21515;-80
2022/09/16 05:30:45;;;;;;;12.40;4.63;;;14.60;41.80;;;;;;5051037;28;20776;-81
2022/09/16 05:33:10;;;;;;;9.10;4.70;;;14.70;41.90;;;;;;5049639;28;20423;-79
2022/09/16 05:35:36;;;;;;;7.23;4.70;;;14.70;42.10;;;;;;5050583;28;20173;-79
2022/09/16 05:38:01;;;;;;;4.40;4.00;;;14.70;44.80;;;;;;5048162;28;20185;-76
2022/09/16 05:40:27;;;;;;;12.80;4.57;;;14.80;42.20;;;;;;5047561;28;20200;-76
2022/09/16 05:42:54;;;;;;;7.07;4.67;;;14.80;42.00;;;;;;5032407;28;20165;-76
2022/09/16 05:45:20;;;;;;;8.50;4.47;;;14.70;41.90;;;;;;5041097;28;20537;-76
2022/09/16 05:47:49;;;;;;;17.47;5.30;;;14.60;42.00;;;;;;5046848;28;20428;-76
2022/09/16 05:50:15;;;;;;;5.23;4.57;;;14.60;46.40;;;;;;5043111;28;20942;-76
2022/09/16 05:52:40;;;;;;;8.27;4.93;;;14.70;53.10;;;;;;5044866;28;20953;-76
2022/09/16 05:55:06;;;;;;;10.13;5.10;;;14.70;53.40;;;;;;5046105;28;20446;-77
2022/09/16 05:57:32;;;;;;;11.70;5.13;;;14.80;58.40;;;;;;5045722;28;20201;-76
2022/09/16 05:59:57;;;;;;;7.00;5.00;;;14.90;48.70;;;;;;5033982;28;20559;-76
2022/09/16 06:02:23;;;;;;;7.80;5.03;;;14.80;50.00;;;;;;5039305;28;20169;-76
2022/09/16 06:04:49;;;;;;;8.50;4.73;;;15.00;48.90;;;;;;5047328;28;20227;-75
2022/09/16 06:07:16;;;;;;;7.70;4.97;;;14.80;47.10;;;;;;5044507;28;20447;-75
2022/09/16 06:09:41;;;;;;;8.10;5.23;;;14.80;42.10;;;;;;5043008;28;20222;-76
2022/09/16 06:12:09;;;;;;;7.53;5.03;;;14.70;46.70;;;;;;5036388;28;20439;-76
2022/09/16 06:14:34;;;;;;;14.70;5.10;;;14.70;51.60;;;;;;5039384;28;20225;-76
2022/09/16 06:17:00;;;;;;;10.73;5.43;;;14.80;58.70;;;;;;5049499;28;20523;-76
2022/09/16 06:19:26;;;;;;;9.30;5.90;;;14.90;58.10;;;;;;5043680;28;20564;-76
2022/09/16 06:21:51;;;;;;;9.20;5.20;;;14.90;56.40;;;;;;5039472;28;20177;-76
2022/09/16 06:24:18;;;;;;;10.40;5.00;;;15.00;62.40;;;;;;5052369;28;20204;-76
2022/09/16 06:26:45;;;;;;;6.93;5.33;;;15.10;64.90;;;;;;5043863;28;20698;-76
2022/09/16 06:29:13;;;;;;;9.17;5.27;;;15.10;59.40;;;;;;5051224;28;20565;-76
2022/09/16 06:31:39;;;;;;;9.40;5.20;;;15.10;54.10;;;;;;5042983;28;20670;-76
2022/09/16 06:34:06;;;;;;;7.30;4.83;;;15.20;52.40;;;;;;5044266;28;20427;-76
2022/09/16 06:36:35;;;;;;;8.00;5.10;;;15.20;46.80;;;;;;5043594;28;20537;-75
2022/09/16 06:39:01;;;;;;;9.37;5.40;;;15.20;49.80;;;;;;5038706;28;20492;-76
2022/09/16 06:41:26;;;;;;;7.97;5.30;;;15.30;42.50;;;;;;5047431;28;20506;-76
2022/09/16 06:43:52;;;;;;;14.37;5.77;;;15.30;46.10;;;;;;5044924;28;20233;-76
2022/09/16 06:46:25;;;;;;;8.60;5.00;;;15.40;42.70;;;;;;5057029;28;20203;-76
2022/09/16 06:48:55;;;;;;;7.07;5.30;;;15.50;56.70;;;;;;5044444;28;20288;-76
2022/09/16 06:51:26;;;;;;;11.33;5.80;;;15.60;42.70;;;;;;5051904;28;20415;-76
2022/09/16 06:53:55;;;;;;;9.50;5.40;;;15.50;42.70;;;;;;5040040;28;20550;-76
2022/09/16 06:56:20;;;;;;;11.27;5.30;;;15.60;49.20;;;;;;5049843;28;20574;-76
2022/09/16 06:58:49;;;;;;;9.10;5.50;;;15.70;42.90;;;;;;5047819;28;21044;-75
2022/09/16 07:01:21;;;;;;;10.10;5.50;;;15.70;42.70;;;;;;5039549;28;20273;-76
2022/09/16 07:03:48;;;;;;;14.13;5.33;;;15.70;42.70;;;;;;5047763;28;21185;-76
2022/09/16 07:06:16;;;;;;;7.30;4.80;;;15.60;42.60;;;;;;5041983;28;20451;-76
2022/09/16 07:08:42;;;;;;;9.90;5.70;;;15.70;42.70;;;;;;5039767;28;20518;-76
2022/09/16 07:11:11;;;;;;;10.23;5.50;;;15.80;42.80;;;;;;5042135;28;20440;-76
2022/09/16 07:13:38;;;;;;;13.27;5.50;;;15.90;43.00;;;;;;5039947;28;20419;-76
2022/09/16 07:16:06;;;;;;;8.90;5.80;;;15.80;42.70;;;;;;5042879;28;20534;-76
2022/09/16 07:18:32;;;;;;;9.20;5.50;;;15.90;43.00;;;;;;5045780;28;20443;-76
2022/09/16 07:21:06;;;;;;;9.87;5.77;;;16.00;42.80;;;;;;5049670;28;20416;-76
2022/09/16 07:23:34;;;;;;;8.30;4.93;;;16.10;42.10;;;;;;5050017;28;20180;-76
2022/09/16 07:26:10;;;;;;;8.87;5.80;;;16.20;31.90;;;;;;5042482;28;20427;-75
2022/09/16 07:28:37;;;;;;;7.40;5.80;;;16.20;45.70;;;;;;5043693;28;20834;-76
2022/09/16 07:31:05;;;;;;;11.50;5.80;;;16.20;30.20;;;;;;5039871;28;20420;-76
2022/09/16 07:33:34;;;;;;;8.70;5.80;;;16.20;25.80;;;;;;5047774;28;20431;-76
2022/09/16 07:36:01;;;;;;;20.43;5.87;;;16.20;23.50;;;;;;5043345;28;21009;-76
2022/09/16 07:38:28;;;;;;;7.43;6.00;;;16.10;25.80;;;;;;5042961;28;20439;-76
2022/09/16 07:40:54;;;;;;;8.47;5.40;;;16.30;30.10;;;;;;5049403;28;20443;-76
2022/09/16 07:43:20;;;;;;;13.83;5.73;;;16.30;28.50;;;;;;5045860;28;20428;-75
2022/09/16 07:45:53;;;;;;;10.40;5.93;;;16.30;28.70;;;;;;5053749;28;20459;-76
2022/09/16 07:48:19;;;;;;;8.63;5.50;;;16.40;28.70;;;;;;5038363;28;20483;-75
2022/09/16 07:50:53;;;;;;;8.57;5.30;;;16.40;27.30;;;;;;5048674;28;20442;-75
2022/09/16 07:53:19;;;;;;;7.77;5.60;;;16.50;16.20;;;;;;5041336;28;20251;-75
2022/09/16 07:55:44;;;;;;;9.67;5.70;;;16.60;24.30;;;;;;5046356;28;20539;-76
2022/09/16 07:58:10;;;;;;;8.30;5.07;;;16.60;23.20;;;;;;5032194;28;20634;-76
2022/09/16 08:00:35;;;;;;;7.43;4.83;;;16.70;16.10;;;;;;5045667;28;20327;-76
2022/09/16 08:03:01;;;;;;;8.50;4.43;;;16.80;17.70;;;;;;5044732;28;20493;-76
2022/09/16 08:05:26;;;;;;;11.43;4.90;;;16.90;5.30;;;;;;5033453;28;20189;-77
2022/09/16 08:07:51;;;;;;;6.50;5.10;;;17.10;3.10;;;;;;5044562;28;20675;-76
2022/09/16 08:10:17;;;;;;;11.47;4.83;;;17.10;10.00;;;;;;5047197;28;20647;-77
2022/09/16 08:12:46;;;;;;;8.50;4.87;;;17.30;1.00;;;;;;5036550;28;20186;-76
2022/09/16 08:15:11;;;;;;;7.30;4.47;;;17.50;1.00;;;;;;5042945;28;20276;-76
2022/09/16 08:17:37;;;;;;;9.63;5.10;;;17.60;1.00;;;;;;5037426;28;20550;-76
2022/09/16 08:20:05;;;;;;;7.40;4.70;;;17.60;1.00;;;;;;5047575;28;20182;-76
2022/09/16 08:22:30;;;;;;;6.20;4.73;;;17.60;1.00;;;;;;5038920;28;20176;-76
2022/09/16 08:24:56;;;;;;;8.00;4.50;;;17.60;1.00;;;;;;5045383;28;20431;-75
2022/09/16 08:27:21;;;;;;;5.50;4.20;;;17.60;1.00;;;;;;5049887;28;20204;-75
2022/09/16 08:29:47;;;;;;;6.90;4.20;;;17.50;1.00;;;;;;5048392;28;20207;-75
2022/09/16 08:32:13;;;;;;;9.70;4.80;;;17.30;1.00;;;;;;5049648;28;20169;-75
2022/09/16 08:34:39;;;;;;;5.20;4.00;;;17.10;1.00;;;;;;5047046;28;20195;-75
2022/09/16 08:37:05;;;;;;;10.10;4.67;;;17.20;1.00;;;;;;5045751;28;20250;-76
2022/09/16 08:39:30;;;;;;;5.90;3.93;;;17.20;1.00;;;;;;5046704;28;20502;-75
2022/09/16 08:42:36;;;;;;;6.67;3.40;;;17.20;1.00;;;;;;5031958;28;20212;-75
2022/09/16 08:45:11;;;;;;;7.97;3.60;;;17.20;1.00;;;;;;5040275;28;20234;-75
2022/09/16 08:47:55;;;;;;;5.83;3.10;;;17.40;1.00;;;;;;5044985;28;20448;-75
2022/09/16 08:50:29;;;;;;;6.33;3.40;;;17.70;1.00;;;;;;5038533;28;20915;-75
2022/09/16 08:52:58;;;;;;;7.40;3.27;;;18.00;1.00;;;;;;5038836;28;20435;-75
2022/09/16 08:55:31;;;;;;;6.63;3.97;;;18.40;1.00;;;;;;5037293;28;20435;-75
2022/09/16 08:58:04;;;;;;;5.10;4.10;;;19.20;1.00;;;;;;5047687;28;20515;-76
2022/09/16 09:00:30;;;;;;;8.87;4.17;;;19.50;1.00;;;;;;5048552;28;20514;-75
2022/09/16 09:03:00;;;;;;;7.53;3.90;;;19.30;1.00;;;;;;5046357;28;20855;-75
2022/09/16 09:05:40;;;;;;;4.87;3.60;;;18.80;1.00;;;;;;5048356;28;20188;-75
2022/09/16 09:08:32;;;;;;;6.77;4.00;;;18.70;1.00;;;;;;5046170;28;20929;-76
2022/09/16 09:11:29;;;;;;;4.80;3.60;;;18.60;1.00;;;;;;5048914;28;20837;-76
2022/09/16 09:14:14;;;;;;;4.67;3.30;;;18.40;1.00;;;;;;5043417;28;20459;-75
2022/09/16 09:17:26;;;;;;;8.57;3.60;;;18.40;1.00;;;;;;5056728;28;20461;-76
2022/09/16 09:20:36;;;;;;;6.97;3.17;;;18.50;1.00;;;;;;5028799;28;20885;-75
2022/09/16 09:23:14;;;;;;;7.83;3.60;;;18.60;1.00;;;;;;5030220;28;20875;-75
2022/09/16 09:26:03;;;;;;;5.30;3.10;;;18.60;1.00;;;;;;5041853;28;20430;-75
2022/09/16 09:29:23;;;;;;;4.83;2.87;;;18.60;1.00;;;;;;5044527;28;20830;-76
2022/09/16 09:32:04;;;;;;;7.57;3.03;;;18.80;1.00;;;;;;5036042;28;20490;-75
2022/09/16 09:34:55;;;;;;;6.43;2.63;;;19.20;1.00;;;;;;5045371;28;20438;-75
2022/09/16 09:37:48;;;;;;;10.37;2.93;;;19.80;1.00;;;;;;5045953;28;20535;-75
2022/09/16 09:40:48;;;;;;;6.00;2.93;;;20.60;1.00;;;;;;5042443;28;20470;-75
2022/09/16 09:43:24;;;;;;;9.30;3.33;;;21.20;1.00;;;;;;5038225;28;20441;-76
2022/09/16 09:46:09;;;;;;;6.70;2.37;;;21.70;1.00;;;;;;5054222;28;20484;-75
2022/09/16 09:48:40;;;;;;;6.97;2.63;;;22.00;1.00;;;;;;5051539;28;20470;-75
2022/09/16 09:51:33;;;;;;;9.40;2.70;;;22.30;1.00;;;;;;5039341;28;20435;-75
2022/09/16 09:54:03;;;;;;;5.73;2.43;;;22.20;1.00;;;;;;5049500;28;20430;-75
2022/09/16 09:56:44;;;;;;;5.23;2.53;;;21.90;1.00;;;;;;5046077;28;20443;-75
2022/09/16 09:59:38;;;;;;;3.60;2.40;;;21.90;1.00;;;;;;5042621;28;20438;-75
2022/09/16 10:02:14;;;;;;;4.80;2.50;;;22.10;1.00;;;;;;5043936;28;20504;-76
2022/09/16 10:04:39;;;;;;;5.80;2.43;;;21.90;1.00;;;;;;5041858;28;20431;-75
2022/09/16 10:07:07;;;;;;;5.60;2.87;;;22.00;1.00;;;;;;5052727;28;20439;-77
2022/09/16 10:09:34;;;;;;;8.80;2.93;;;21.80;1.00;;;;;;5050034;28;20232;-76
2022/09/16 10:12:00;;;;;;;4.70;2.50;;;21.30;1.00;;;;;;5043978;28;20411;-75
2022/09/16 10:14:26;;;;;;;3.93;2.23;;;20.80;1.00;;;;;;5047453;28;20443;-76
2022/09/16 10:16:52;;;;;;;4.57;2.00;;;20.50;1.00;;;;;;5049427;28;20460;-75
2022/09/16 10:19:24;;;;;;;7.50;2.20;;;20.50;1.00;;;;;;5051797;28;20169;-75
2022/09/16 10:22:06;;;;;;;4.70;1.83;;;21.10;1.00;;;;;;5039471;28;20445;-75
2022/09/16 10:24:37;;;;;;;6.20;2.20;;;21.10;1.00;;;;;;5050450;28;20424;-75
2022/09/16 10:27:20;;;;;;;7.47;2.20;;;21.30;1.00;;;;;;5047325;28;20462;-75
2022/09/16 10:29:46;;;;;;;6.67;2.00;;;21.90;1.00;;;;;;5049073;28;20462;-75
2022/09/16 10:32:17;;;;;;;6.47;2.20;;;22.70;1.00;;;;;;5049023;28;20565;-75
2022/09/16 10:34:44;;;;;;;5.00;1.83;;;23.10;1.00;;;;;;5048561;28;20431;-75
2022/09/16 10:37:11;;;;;;;4.23;1.77;;;23.10;1.00;;;;;;5051061;28;20531;-75
2022/09/16 10:39:39;;;;;;;4.40;1.90;;;22.90;1.00;;;;;;5048806;28;20427;-76
2022/09/16 10:42:19;;;;;;;5.27;1.70;;;23.30;1.00;;;;;;5050608;28;20523;-76
2022/09/16 10:44:47;;;;;;;4.10;1.60;;;23.10;1.00;;;;;;5050807;28;20898;-75
2022/09/16 10:47:29;;;;;;;5.17;1.60;;;22.80;1.00;;;;;;5044343;28;20998;-75
2022/09/16 10:50:04;;;;;;;5.40;1.57;;;23.10;1.00;;;;;;5048831;28;20488;-75
2022/09/16 10:52:40;;;;;;;3.80;1.63;;;22.70;1.00;;;;;;5049892;28;20485;-75
2022/09/16 10:55:16;;;;;;;6.90;1.90;;;22.80;1.00;;;;;;5043011;28;20738;-76
2022/09/16 10:57:42;;;;;;;5.97;1.60;;;23.00;1.00;;;;;;5051128;28;20438;-75
2022/09/16 11:00:18;;;;;;;3.13;1.40;;;23.50;1.00;;;;;;5042721;28;20735;-75
2022/09/16 11:03:16;;;;;;;4.13;2.20;;;23.70;1.00;;;;;;5045813;28;20181;-76
2022/09/16 11:05:57;;;;;;;3.10;1.60;;;24.10;1.00;;;;;;5048363;28;20516;-75
2022/09/16 11:08:52;;;;;;;2.90;1.37;;;25.10;1.00;;;;;;5035321;28;20954;-76
2022/09/16 11:11:43;;;;;;;3.30;1.83;;;25.20;1.00;;;;;;5041949;28;20475;-76
2022/09/16 11:14:11;;;;;;;3.60;1.43;;;24.50;1.00;;;;;;5044570;28;20522;-76
2022/09/16 11:16:55;;;;;;;4.30;1.30;;;25.00;1.00;;;;;;5057929;28;20446;-76
2022/09/16 11:19:46;;;;;;;3.07;1.33;;;25.60;1.00;;;;;;5046047;28;20407;-76
2022/09/16 11:22:40;;;;;;;5.77;1.60;;;25.80;1.00;;;;;;5039304;28;20435;-75
2022/09/16 11:25:43;;;;;;;6.00;1.90;;;25.00;1.00;;;;;;5042283;28;20522;-75
2022/09/16 11:28:18;;;;;;;4.27;1.90;;;24.30;1.00;;;;;;5045409;28;20447;-75
2022/09/16 11:31:20;;;;;;;3.50;1.40;;;24.00;1.00;;;;;;5045067;28;20434;-76
2022/09/16 11:34:34;;;;;;;3.80;1.67;;;24.40;1.00;;;;;;5049000;28;20450;-76
2022/09/16 11:37:17;;;;;;;3.77;1.43;;;23.90;1.00;;;;;;5012222;28;20494;-76
2022/09/16 11:40:04;;;;;;;4.30;1.57;;;23.40;1.00;;;;;;5049144;28;20423;-75
2022/09/16 11:42:39;;;;;;;3.80;1.63;;;24.00;1.00;;;;;;5045585;28;20414;-75
2022/09/16 11:45:07;;;;;;;3.60;1.60;;;26.60;1.00;;;;;;5046012;28;20428;-76
2022/09/16 11:47:48;;;;;;;4.70;1.40;;;29.00;1.00;;;;;;5043741;28;20458;-76
2022/09/16 11:50:19;;;;;;;3.10;1.40;;;31.00;1.00;;;;;;5041268;28;20996;-76
2022/09/16 11:52:59;;;;;;;3.53;1.43;;;32.40;1.00;;;;;;5046753;28;20181;-76
2022/09/16 11:55:44;;;;;;;5.60;1.63;;;31.10;1.00;;;;;;5049087;28;21221;-76
2022/09/16 11:58:48;;;;;;;3.20;1.80;;;29.30;1.00;;;;;;5042338;28;20161;-76
2022/09/16 12:01:30;;;;;;;4.23;1.50;;;27.30;1.00;;;;;;5023028;28;20524;-76
2022/09/16 12:04:03;;;;;;;3.57;1.60;;;27.80;1.00;;;;;;5049574;28;20926;-76
2022/09/16 12:06:37;;;;;;;4.60;1.70;;;28.10;1.00;;;;;;5049674;28;20968;-76
2022/09/16 12:09:12;;;;;;;4.57;1.60;;;27.30;1.00;;;;;;5032367;28;20475;-77
2022/09/16 12:11:52;;;;;;;7.53;1.90;;;26.80;1.00;;;;;;5037683;28;20979;-75
2022/09/16 12:14:36;;;;;;;4.37;1.63;;;29.10;1.00;;;;;;5037646;28;20430;-76
2022/09/16 12:17:19;;;;;;;5.60;1.70;;;31.00;1.00;;;;;;5037647;28;20201;-76
2022/09/16 12:19:48;;;;;;;2.20;1.30;;;33.00;1.00;;;;;;5047427;28;20447;-76
2022/09/16 12:22:39;;;;;;;3.15;1.45;;;33.60;1.00;;;;;;5039293;28;20543;-76
2022/09/16 12:25:17;;;;;;;4.10;1.60;;;32.20;1.00;;;;;;5043260;28;20164;-76
2022/09/16 12:28:11;;;;;;;3.92;1.65;;;31.60;1.00;;;;;;5047719;28;20208;-76
2022/09/16 12:30:41;;;;;;;3.33;1.63;;;30.50;1.00;;;;;;5049015;28;20181;-76
2022/09/16 12:33:14;;;;;;;3.10;1.40;;;30.80;1.00;;;;;;5047976;28;20639;-76
2022/09/16 12:36:01;;;;;;;6.23;1.80;;;29.80;1.00;;;;;;5047767;28;20615;-76
2022/09/16 12:38:26;;;;;;;3.00;1.60;;;27.60;1.00;;;;;;5048066;28;20187;-76
2022/09/16 12:41:39;;;;;;;6.10;2.20;;;25.50;1.00;;;;;;5048006;28;20518;-76
2022/09/16 12:44:48;;;;;;;4.03;1.80;;;23.90;1.00;;;;;;5010856;28;20210;-76
2022/09/16 12:47:37;;;;;;;4.80;1.90;;;22.50;1.00;;;;;;5038313;28;20530;-76
2022/09/16 12:50:44;;;;;;;5.03;1.90;;;21.40;1.00;;;;;;5040542;28;20498;-76
2022/09/16 12:53:40;;;;;;;4.93;2.17;;;20.20;1.00;;;;;;5041139;28;20427;-76
2022/09/16 12:56:31;;;;;;;4.13;2.27;;;19.50;1.00;;;;;;5040019;28;20501;-76
2022/09/16 12:59:31;;;;;;;4.83;1.87;;;19.80;1.00;;;;;;5046326;28;20419;-76
2022/09/16 13:02:03;;;;;;;6.07;2.20;;;20.30;1.00;;;;;;5044650;28;20571;-76
2022/09/16 13:04:41;;;;;;;4.53;2.13;;;21.40;1.00;;;;;;5047423;28;20489;-76
2022/09/16 13:07:20;;;;;;;3.53;2.03;;;23.90;1.00;;;;;;5044199;28;20451;-76
2022/09/16 13:09:46;;;;;;;4.80;3.20;;;27.40;1.00;;;;;;5048461;28;20466;-76
2022/09/16 13:12:28;;;;;;;5.83;2.97;;;28.90;1.00;;;;;;5041896;28;20487;-76
2022/09/16 13:15:00;;;;;;;5.13;2.33;;;28.90;1.00;;;;;;5041879;28;20765;-76
2022/09/16 13:17:30;;;;;;;4.90;1.80;;;29.40;1.00;;;;;;5043286;28;20725;-76
2022/09/16 13:20:16;;;;;;;3.13;1.73;;;30.60;1.00;;;;;;5044975;28;20420;-76
2022/09/16 13:22:50;;;;;;;7.40;1.80;;;31.20;1.00;;;;;;5031250;28;20311;-76
2022/09/16 13:25:28;;;;;;;5.22;1.73;;;33.40;1.00;;;;;;5042737;28;20192;-77
2022/09/16 13:28:41;;;;;;;3.70;1.75;;;33.30;1.00;;;;;;5048002;28;20224;-77